Terminal Aerodrome Forecast
Issued by NWS

Home | Current Version | Previous Version | Text Only | Print | Product List | Glossary On
Versions: 1 2 3 4 5 6 7 8 9 10 11 12 13 14 15 16
000
FTUS43 KLSX 121100
TAFCPS
TAF
KCPS 121133Z 1212/1312 04009KT P6SM OVC015
      TEMPO 1212/1214 -DZ
     FM121800 36010KT P6SM OVC025
     FM130900 34008KT P6SM SCT030=

USA.gov is the U.S. government's official web portal to all federal, state and local government web resources and services.